createdAt,value
2018-04-14T00:01:14.326Z,70.90
2018-04-14T00:03:42.085Z,70.10
2018-04-14T00:06:10.805Z,70.30
2018-04-14T00:08:38.565Z,70.40
2018-04-14T00:11:06.346Z,70.40
2018-04-14T00:13:34.114Z,70.40
2018-04-14T00:16:01.873Z,70.40
2018-04-14T00:18:29.596Z,70.60
2018-04-14T00:20:57.366Z,70.50
2018-04-14T00:23:25.114Z,70.50
2018-04-14T00:25:53.081Z,70.70
2018-04-14T00:28:21.028Z,71.00
2018-04-14T00:30:48.835Z,71.00
2018-04-14T00:33:16.810Z,71.20
2018-04-14T00:35:44.550Z,71.20
2018-04-14T00:38:13.177Z,71.10
2018-04-14T00:40:40.953Z,71.10
2018-04-14T00:43:09.706Z,71.10
2018-04-14T00:45:37.466Z,71.00
2018-04-14T00:48:05.809Z,71.10
2018-04-14T00:50:34.353Z,71.40
2018-04-14T00:53:14.178Z,71.40
2018-04-14T00:55:41.983Z,71.30
2018-04-14T00:58:10.545Z,72.20
2018-04-14T01:00:38.354Z,71.40
2018-04-14T01:03:06.147Z,71.50
2018-04-14T01:05:34.669Z,71.60
2018-04-14T01:08:02.406Z,71.70
2018-04-14T01:10:30.227Z,71.60
2018-04-14T01:12:58.029Z,71.70
2018-04-14T01:15:25.783Z,71.80
2018-04-14T01:17:53.602Z,71.70
2018-04-14T01:20:23.118Z,71.70
2018-04-14T01:22:51.639Z,71.80
2018-04-14T01:25:19.381Z,71.80
2018-04-14T01:27:47.187Z,71.60
2018-04-14T01:30:15.546Z,71.20
2018-04-14T01:32:43.972Z,70.90
2018-04-14T01:35:12.481Z,71.20
2018-04-14T01:37:41.165Z,71.20
2018-04-14T01:40:09.822Z,71.10
2018-04-14T01:42:37.721Z,70.90
2018-04-14T01:45:05.772Z,70.60
2018-04-14T01:47:34.325Z,70.00
2018-04-14T01:50:02.176Z,70.00
2018-04-14T01:52:30.702Z,69.90
2018-04-14T01:54:59.227Z,70.00
2018-04-14T01:57:26.981Z,70.00
2018-04-14T01:59:54.708Z,70.00
2018-04-14T02:02:23.213Z,70.00
2018-04-14T02:04:50.970Z,70.00
2018-04-14T02:07:19.725Z,70.10
2018-04-14T02:09:47.478Z,70.00
2018-04-14T02:12:16.921Z,69.80
2018-04-14T02:14:45.309Z,69.90
2018-04-14T02:17:13.070Z,69.70
2018-04-14T02:19:42.332Z,69.60
2018-04-14T02:22:10.099Z,69.80
2018-04-14T02:24:37.839Z,69.80
2018-04-14T02:27:05.589Z,70.30
2018-04-14T02:29:33.379Z,69.60
2018-04-14T02:32:02.061Z,69.60
2018-04-14T02:34:29.817Z,69.70
2018-04-14T02:36:57.911Z,69.40
2018-04-14T02:39:27.048Z,68.80
2018-04-14T02:41:54.864Z,68.80
2018-04-14T02:44:24.412Z,68.80
2018-04-14T02:46:52.346Z,68.60
2018-04-14T02:49:20.110Z,68.60
2018-04-14T02:51:48.148Z,69.10
2018-04-14T02:54:15.886Z,69.40
2018-04-14T02:56:43.932Z,68.40
2018-04-14T02:59:12.445Z,68.40
2018-04-14T03:01:40.211Z,68.40
2018-04-14T03:04:08.319Z,68.30
2018-04-14T03:06:36.093Z,68.20
2018-04-14T03:09:05.282Z,68.10
2018-04-14T03:11:33.022Z,67.90
2018-04-14T03:14:01.647Z,68.00
2018-04-14T03:16:30.261Z,68.20
2018-04-14T03:18:58.000Z,68.50
2018-04-14T03:21:26.509Z,68.40
2018-04-14T03:23:54.289Z,68.40
2018-04-14T03:26:22.048Z,68.40
2018-04-14T03:28:50.598Z,68.50
2018-04-14T03:31:19.169Z,68.20
2018-04-14T03:33:46.920Z,68.20
2018-04-14T03:36:17.475Z,68.40
2018-04-14T03:38:46.002Z,68.40
2018-04-14T03:41:14.772Z,68.40
2018-04-14T03:43:43.503Z,68.10
2018-04-14T03:46:12.148Z,68.00
2018-04-14T03:48:39.898Z,68.10
2018-04-14T03:51:07.741Z,68.40
2018-04-14T03:53:36.249Z,69.00
2018-04-14T03:56:04.862Z,68.90
2018-04-14T03:58:33.595Z,68.80
2018-04-14T04:01:03.052Z,68.60
2018-04-14T04:03:31.783Z,68.40
2018-04-14T04:06:00.294Z,68.20
2018-04-14T04:08:29.677Z,68.20
2018-04-14T04:10:58.318Z,68.20
2018-04-14T04:13:26.241Z,68.20
2018-04-14T04:15:53.969Z,68.20
2018-04-14T04:18:34.410Z,68.00
2018-04-14T04:21:14.189Z,68.00
2018-04-14T04:23:54.477Z,68.00
2018-04-14T04:26:23.173Z,68.00
2018-04-14T04:28:50.972Z,68.10
2018-04-14T04:31:19.788Z,68.20
2018-04-14T04:33:48.824Z,68.50
2018-04-14T04:36:17.856Z,68.50
2018-04-14T05:33:53.913Z,68.80
2018-04-14T06:56:32.554Z,74.20
2018-04-14T06:59:22.010Z,73.90
2018-04-14T07:16:34.970Z,72.50
2018-04-14T07:19:04.041Z,72.50
2018-04-14T07:21:33.092Z,71.90
2018-04-14T07:24:02.149Z,71.30
2018-04-14T07:27:02.882Z,71.60
2018-04-14T07:32:10.049Z,73.30
2018-04-14T07:38:00.659Z,75.60
2018-04-14T08:00:28.965Z,77.60
2018-04-14T08:10:18.701Z,78.80
2018-04-14T08:26:36.614Z,78.80
2018-04-14T08:29:04.377Z,78.30
2018-04-14T08:31:32.876Z,78.60
2018-04-14T08:34:00.612Z,78.60
2018-04-14T08:36:29.116Z,78.80
2018-04-14T08:38:56.864Z,78.80
2018-04-14T08:41:24.598Z,77.30
2018-04-14T08:43:52.329Z,76.80
2018-04-14T08:46:20.212Z,75.70
2018-04-14T08:48:47.963Z,75.50
2018-04-14T08:51:15.800Z,75.40
2018-04-14T08:53:43.583Z,75.60
2018-04-14T08:56:11.347Z,75.90
2018-04-14T08:58:39.073Z,74.50
2018-04-14T09:01:07.799Z,74.50
2018-04-14T09:03:35.583Z,75.20
2018-04-14T09:06:03.311Z,73.80
2018-04-14T09:08:31.047Z,73.90
2018-04-14T09:10:59.536Z,72.30
2018-04-14T09:13:27.268Z,72.20
2018-04-14T09:15:54.985Z,69.10
2018-04-14T09:18:22.723Z,67.20
2018-04-14T09:20:51.282Z,65.60
2018-04-14T09:23:19.018Z,65.60
2018-04-14T09:25:46.746Z,65.20
2018-04-14T09:28:14.785Z,64.30
2018-04-14T09:30:43.461Z,64.60
2018-04-14T09:33:11.180Z,64.60
2018-04-14T09:35:38.957Z,64.60
2018-04-14T09:38:06.688Z,64.50
2018-04-14T09:40:34.421Z,65.50
2018-04-14T09:43:02.192Z,63.40
2018-04-14T09:45:30.748Z,64.70
2018-04-14T09:47:58.477Z,64.80
2018-04-14T09:50:26.204Z,66.90
2018-04-14T09:52:54.728Z,63.40
2018-04-14T09:55:22.448Z,63.40
2018-04-14T09:57:50.941Z,62.20
2018-04-14T10:00:25.140Z,59.30
2018-04-14T10:02:53.744Z,61.00
2018-04-14T10:05:22.225Z,61.40
2018-04-14T10:07:49.992Z,61.40
2018-04-14T10:10:17.739Z,59.50
2018-04-14T10:12:46.244Z,59.80
2018-04-14T10:15:13.973Z,59.80
2018-04-14T10:17:41.702Z,60.50
2018-04-14T10:20:09.454Z,61.50
2018-04-14T10:22:37.246Z,61.60
2018-04-14T10:25:04.988Z,62.90
2018-04-14T10:27:32.785Z,62.80
2018-04-14T10:30:00.544Z,65.00
2018-04-14T10:32:28.274Z,65.10
2018-04-14T10:34:56.013Z,66.10
2018-04-14T10:37:23.749Z,67.10
2018-04-14T10:39:52.261Z,67.40
2018-04-14T10:42:19.989Z,67.40
2018-04-14T10:44:48.547Z,64.50
2018-04-14T10:47:16.269Z,64.40
2018-04-14T10:49:44.004Z,65.20
2018-04-14T10:52:12.517Z,65.70
2018-04-14T10:54:40.357Z,65.70
2018-04-14T10:57:08.924Z,62.20
2018-04-14T10:59:36.786Z,62.20
2018-04-14T11:02:04.523Z,62.80
2018-04-14T11:04:32.258Z,63.30
2018-04-14T11:06:59.985Z,64.20
2018-04-14T11:09:28.489Z,63.80
2018-04-14T11:11:56.292Z,63.80
2018-04-14T11:14:24.044Z,63.40
2018-04-14T11:16:51.776Z,63.40
2018-04-14T11:19:20.285Z,61.00
2018-04-14T11:21:48.099Z,61.00
2018-04-14T11:24:15.836Z,60.30
2018-04-14T11:26:43.573Z,59.70
2018-04-14T11:29:11.304Z,57.90
2018-04-14T11:31:39.806Z,58.20
2018-04-14T11:34:07.540Z,58.20
2018-04-14T11:36:36.042Z,60.30
2018-04-14T11:39:03.951Z,60.30
2018-04-14T11:41:31.702Z,60.50
2018-04-14T11:43:59.423Z,59.90
2018-04-14T11:46:27.936Z,58.40
2018-04-14T11:48:55.656Z,58.40
2018-04-14T11:51:24.153Z,58.50
2018-04-14T11:53:52.632Z,58.90
2018-04-14T11:56:21.176Z,59.10
2018-04-14T11:58:48.941Z,59.20
2018-04-14T13:15:23.212Z,50.70
2018-04-14T13:17:51.012Z,50.70
2018-04-14T13:20:18.737Z,51.70
2018-04-14T13:22:47.219Z,51.10
2018-04-14T13:25:15.723Z,51.10
2018-04-14T13:27:43.445Z,51.10
2018-04-14T13:30:11.191Z,52.20
2018-04-14T13:32:38.920Z,50.30
2018-04-14T13:35:06.668Z,52.60
2018-04-14T13:37:34.505Z,51.70
2018-04-14T13:40:02.236Z,50.90
2018-04-14T13:42:29.956Z,51.80
2018-04-14T13:44:57.684Z,51.30
2018-04-14T13:47:25.410Z,50.70
2018-04-14T13:49:53.143Z,50.20
2018-04-14T13:52:20.869Z,50.10
2018-04-14T13:54:48.650Z,49.80
2018-04-14T13:57:16.357Z,51.10
2018-04-14T13:59:44.078Z,49.60
2018-04-14T14:02:12.568Z,49.20
2018-04-14T14:04:41.049Z,50.00
2018-04-14T14:07:09.537Z,49.00
2018-04-14T14:09:37.264Z,49.00
2018-04-14T14:12:05.052Z,49.00
2018-04-14T14:14:33.641Z,49.20
2018-04-14T14:17:02.155Z,49.90
2018-04-14T14:19:29.873Z,49.90
2018-04-14T14:21:58.358Z,49.20
2018-04-14T14:24:26.852Z,49.20
2018-04-14T14:26:54.568Z,49.10
2018-04-14T14:29:22.288Z,48.90
2018-04-14T14:31:50.020Z,49.20
2018-04-14T14:34:18.512Z,48.60
2018-04-14T14:36:47.001Z,47.90
2018-04-14T14:39:14.717Z,47.90
2018-04-14T14:41:42.445Z,47.50
2018-04-14T14:44:10.200Z,46.90
2018-04-14T14:46:37.932Z,49.70
2018-04-14T14:49:06.441Z,49.90
2018-04-14T14:51:34.272Z,49.90
2018-04-14T14:54:01.995Z,52.70
2018-04-14T14:56:29.739Z,52.60
2018-04-14T14:58:57.516Z,52.30
2018-04-14T15:01:25.301Z,52.70
2018-04-14T15:03:53.095Z,52.80
2018-04-14T15:06:21.652Z,50.50
2018-04-14T15:08:49.373Z,50.00
2018-04-14T15:11:17.097Z,49.50
2018-04-14T15:13:44.816Z,47.60
2018-04-14T15:16:12.533Z,45.30
2018-04-14T15:18:41.039Z,44.60
2018-04-14T15:21:08.766Z,44.70
2018-04-14T15:23:36.481Z,44.90
2018-04-14T15:26:04.215Z,43.30
2018-04-14T15:28:32.702Z,43.70
2018-04-14T15:31:00.438Z,43.90
2018-04-14T15:33:28.168Z,44.90
2018-04-14T15:35:55.935Z,45.10
2018-04-14T15:38:23.673Z,46.20
2018-04-14T15:40:51.394Z,46.40
2018-04-14T15:43:19.151Z,47.50
2018-04-14T15:45:46.917Z,47.70
2018-04-14T15:48:14.657Z,48.20
2018-04-14T15:50:42.428Z,49.00
2018-04-14T15:53:10.152Z,50.10
2018-04-14T15:55:37.871Z,51.90
2018-04-14T15:58:05.638Z,51.60
2018-04-14T16:00:33.403Z,52.00
2018-04-14T16:03:01.905Z,52.70
2018-04-14T16:05:29.677Z,52.70
2018-04-14T16:07:57.400Z,52.60
2018-04-14T16:10:25.125Z,53.40
2018-04-14T16:12:52.840Z,53.70
2018-04-14T16:15:21.341Z,54.20
2018-04-14T16:17:49.078Z,54.20
2018-04-14T16:20:16.806Z,54.90
2018-04-14T16:22:44.555Z,56.60
2018-04-14T16:25:12.296Z,56.10
2018-04-14T16:27:40.031Z,55.90
2018-04-14T16:30:07.778Z,55.20
2018-04-14T16:32:35.506Z,55.40
2018-04-14T16:35:03.264Z,55.20
2018-04-14T16:37:30.991Z,55.20
2018-04-14T16:39:59.498Z,54.70
2018-04-14T16:42:27.230Z,54.60
2018-04-14T16:44:55.736Z,54.70
2018-04-14T16:47:24.234Z,56.10
2018-04-14T16:49:51.959Z,56.10
2018-04-14T16:52:20.464Z,55.40
2018-04-14T16:54:48.200Z,55.40
2018-04-14T16:57:15.915Z,56.30
2018-04-14T16:59:43.656Z,54.80
2018-04-14T17:02:11.392Z,55.00
2018-04-14T17:04:39.117Z,55.70
2018-04-14T17:07:06.884Z,55.90
2018-04-14T17:09:34.676Z,55.40
2018-04-14T17:12:02.406Z,56.40
2018-04-14T17:14:30.145Z,55.70
2018-04-14T17:16:57.880Z,55.80
2018-04-14T17:19:26.371Z,55.40
2018-04-14T17:21:54.869Z,56.50
2018-04-14T17:24:22.588Z,56.50
2018-04-14T17:26:50.307Z,56.40
2018-04-14T17:29:18.069Z,56.70
2018-04-14T17:31:45.804Z,57.20
2018-04-14T17:34:14.330Z,58.60
2018-04-14T17:36:42.064Z,58.60
2018-04-14T17:39:09.849Z,59.00
2018-04-14T17:41:37.597Z,59.20
2018-04-14T17:44:05.336Z,59.50
2018-04-14T17:46:33.840Z,61.10
2018-04-14T17:49:01.636Z,61.10
2018-04-14T17:51:29.369Z,61.80
2018-04-14T17:53:57.144Z,62.50
2018-04-14T17:56:24.899Z,63.00
2018-04-14T17:58:52.632Z,63.20
2018-04-14T18:01:21.208Z,63.50
2018-04-14T18:03:48.976Z,63.60
2018-04-14T18:06:16.723Z,63.80
2018-04-14T18:08:44.517Z,64.00
2018-04-14T18:11:13.032Z,63.30
2018-04-14T18:13:40.755Z,63.30
2018-04-14T18:16:09.257Z,57.70
2018-04-14T18:18:36.993Z,57.80
2018-04-14T18:21:05.492Z,55.00
2018-04-14T18:23:33.237Z,54.50
2018-04-14T18:26:01.736Z,44.30
2018-04-14T18:28:30.231Z,47.60
2018-04-14T18:30:57.977Z,47.60
2018-04-14T18:33:26.469Z,42.30
2018-04-14T18:35:54.201Z,42.30
2018-04-14T18:38:22.716Z,44.80
2018-04-14T18:40:50.457Z,44.80
2018-04-14T18:43:18.959Z,43.60
2018-04-14T18:45:46.701Z,43.60
2018-04-14T18:48:15.192Z,41.80
2018-04-14T18:50:43.672Z,45.70
2018-04-14T18:53:12.161Z,46.70
2018-04-14T18:55:39.926Z,46.40
2018-04-14T18:58:07.660Z,44.70
2018-04-14T19:00:35.384Z,40.30
2018-04-14T19:03:03.115Z,44.00
2018-04-14T19:05:30.833Z,45.20
2018-04-14T19:07:58.556Z,44.00
2018-04-14T19:10:26.310Z,43.70
2018-04-14T19:12:54.031Z,40.70
2018-04-14T19:15:21.767Z,40.90
2018-04-14T19:17:49.496Z,40.00
2018-04-14T19:20:17.228Z,42.70
2018-04-14T19:22:45.716Z,41.80
2018-04-14T19:25:14.200Z,40.10
2018-04-14T19:27:42.700Z,41.00
2018-04-14T19:30:10.441Z,41.00
2018-04-14T19:32:38.947Z,44.30
2018-04-14T19:35:06.677Z,44.30
2018-04-14T19:37:34.397Z,46.20
2018-04-14T19:40:02.116Z,42.30
2018-04-14T19:42:30.613Z,46.90
2018-04-14T19:44:58.348Z,46.90
2018-04-14T19:47:26.851Z,45.60
2018-04-14T19:49:54.580Z,45.50
2018-04-14T19:52:22.307Z,48.00
2018-04-14T19:54:50.030Z,49.20
2018-04-14T19:57:18.549Z,48.10
2018-04-14T19:59:46.318Z,48.10
2018-04-14T20:02:14.056Z,48.00
2018-04-14T20:04:41.845Z,48.00
2018-04-14T20:07:09.633Z,45.60
2018-04-14T20:09:37.352Z,47.80
2018-04-14T20:12:05.546Z,46.90
2018-04-14T20:14:33.305Z,47.10
2018-04-14T20:17:01.253Z,47.20
2018-04-14T20:19:29.031Z,47.20
2018-04-14T20:21:56.779Z,48.10
2018-04-14T20:24:24.713Z,45.80
2018-04-14T20:26:52.512Z,45.10
2018-04-14T20:29:20.361Z,46.20
2018-04-14T20:31:48.857Z,48.90
2018-04-14T20:34:16.618Z,48.90
2018-04-14T20:36:45.104Z,48.30
2018-04-14T20:39:12.916Z,48.30
2018-04-14T20:41:40.669Z,47.90
2018-04-14T20:44:08.418Z,49.40
2018-04-14T20:46:36.176Z,48.20
2018-04-14T20:49:03.912Z,48.20
2018-04-14T20:51:32.427Z,49.10
2018-04-14T20:54:00.157Z,49.10
2018-04-14T20:56:28.644Z,48.90
2018-04-14T20:58:56.394Z,48.90
2018-04-14T21:01:24.905Z,47.30
2018-04-14T21:03:52.712Z,47.30
2018-04-14T21:06:20.511Z,48.00
2018-04-14T21:08:49.005Z,45.20
2018-04-14T21:11:16.766Z,45.10
2018-04-14T21:13:44.542Z,44.10
2018-04-14T21:16:12.312Z,44.80
2018-04-14T21:18:40.045Z,41.30
2018-04-14T21:21:08.557Z,38.50
2018-04-14T21:23:36.345Z,38.50
2018-04-14T21:26:04.232Z,39.20
2018-04-14T21:28:32.845Z,39.50
2018-04-14T21:31:01.346Z,38.90
2018-04-14T21:33:29.068Z,39.00
2018-04-14T21:35:57.053Z,41.40
2018-04-14T21:38:25.580Z,44.80
2018-04-14T21:40:53.317Z,44.80
2018-04-14T21:43:21.053Z,47.10
2018-04-14T21:45:49.562Z,51.10
2018-04-14T21:48:17.292Z,51.10
2018-04-14T21:50:45.120Z,52.50
2018-04-14T21:53:12.888Z,54.40
2018-04-14T21:55:40.773Z,54.90
2018-04-14T21:58:08.527Z,55.60
2018-04-14T22:00:36.284Z,56.80
2018-04-14T22:03:04.037Z,57.20
2018-04-14T22:05:31.808Z,57.60
2018-04-14T22:07:59.528Z,57.80
2018-04-14T22:10:28.024Z,57.20
2018-04-14T22:12:55.749Z,57.80
2018-04-14T22:15:23.477Z,57.30
2018-04-14T22:17:51.228Z,57.70
2018-04-14T22:20:19.017Z,58.00
2018-04-14T22:22:46.764Z,58.00
2018-04-14T22:25:14.506Z,58.00
2018-04-14T22:27:42.233Z,57.70
2018-04-14T22:30:09.968Z,56.60
2018-04-14T22:32:37.802Z,56.70
2018-04-14T22:35:05.541Z,56.50
2018-04-14T22:37:34.046Z,56.00
2018-04-14T22:40:01.773Z,56.00
2018-04-14T22:42:30.267Z,56.10
2018-04-14T22:44:58.759Z,55.10
2018-04-14T22:47:26.538Z,55.10
2018-04-14T22:49:54.268Z,59.00
2018-04-14T22:52:22.765Z,63.60
2018-04-14T22:54:50.501Z,63.70
2018-04-14T22:57:18.232Z,66.50
2018-04-14T22:59:45.976Z,68.50
2018-04-14T23:02:14.472Z,69.20
2018-04-14T23:04:42.253Z,69.20
2018-04-14T23:07:09.981Z,69.80
2018-04-14T23:09:37.713Z,70.20
2018-04-14T23:12:06.204Z,71.40
2018-04-14T23:14:33.988Z,71.50
2018-04-14T23:17:01.709Z,71.20
2018-04-14T23:19:29.519Z,70.90
2018-04-14T23:21:57.298Z,70.20
2018-04-14T23:24:25.010Z,69.50
2018-04-14T23:26:52.821Z,69.50
2018-04-14T23:29:20.625Z,69.20
2018-04-14T23:31:48.452Z,69.70
2018-04-14T23:34:16.177Z,70.20
2018-04-14T23:36:44.665Z,71.10
2018-04-14T23:39:12.394Z,71.10
2018-04-14T23:41:40.116Z,71.20
2018-04-14T23:44:07.831Z,71.70
2018-04-14T23:46:36.316Z,71.60
2018-04-14T23:49:04.819Z,71.70
2018-04-14T23:51:32.540Z,71.70
2018-04-14T23:54:00.265Z,72.00
2018-04-14T23:56:28.060Z,72.60
2018-04-14T23:58:55.802Z,72.80
